»·PEaware :: N902SQ KSBA-C83

N902SQ :: KSBA-C83

FLIGHT INFORMATION

Flight Status: Arrived
Operator: Privately registered:
United States
More flights under this callsign
Pilot: Gabor H. (24209)
Aircraft: SOCATA TBM-900
(TBM9)
More flights by this aircraft type
Origin: KSBA Santa Barbara Mun
United States
Destination: C83 Byron
United States
More flights between these airports :: More routes between these airports
Route: GAUCH2 GAUCH PRB PXN SMONE
File this flight plan on PilotEdge
Remarks:
Altitude:
(Current/Filed)
24,000ft
Speed:
(Current/Filed)
310kts
Departed: 03-Nov-23 07:35 AM
Arrived: 03-Nov-23 08:30 AM
Distance/Time
Traveled:
222nm/0:55
Distance/Time
To Go:
Arrived

Flight Plot

Page will automatically refresh every two minutes.

Flight plan parsing failed; only flown route is shown


Map Options




Map Legend


Flown Route
Filed Route
Departure Airport
Arrival Airport
Navaid (VOR, NDB)
Fix

Horizontal Profiles

Position Reports

Time Latitude Longitude Heading Altitude Ground
Speed
03-Nov-23 07:24 34.432526 -119.835701 68 16ft 0kts
03-Nov-23 07:25 34.432526 -119.835701 68 16ft 0kts
03-Nov-23 07:26 34.432526 -119.835701 68 16ft 0kts
03-Nov-23 07:27 34.432526 -119.835701 68 16ft 0kts
03-Nov-23 07:28 34.432526 -119.835701 68 16ft 0kts
03-Nov-23 07:29 34.432526 -119.835701 68 16ft 0kts
03-Nov-23 07:30 34.432526 -119.835701 68 16ft 0kts
03-Nov-23 07:31 34.432526 -119.835701 68 16ft 0kts
03-Nov-23 07:32 34.432558 -119.835593 72 16ft 6kts
03-Nov-23 07:33 34.429134 -119.835123 124 16ft 10kts
03-Nov-23 07:34 34.427756 -119.842776 268 48ft 107kts
03-Nov-23 07:35 34.426647 -119.889623 269 2015ft 156kts
03-Nov-23 07:36 34.425673 -119.943882 267 4305ft 163kts
03-Nov-23 07:37 34.439525 -119.993440 302 6792ft 163kts
03-Nov-23 07:38 34.462163 -120.036905 303 9704ft 147kts
03-Nov-23 07:39 34.483550 -120.078016 302 12399ft 146kts
03-Nov-23 07:40 34.505213 -120.119816 301 15012ft 149kts
03-Nov-23 07:41 34.527277 -120.162475 300 17433ft 155kts
03-Nov-23 07:42 34.550196 -120.206892 300 19925ft 161kts
03-Nov-23 07:43 34.574339 -120.253696 300 22389ft 169kts
03-Nov-23 07:44 34.619223 -120.278263 342 24201ft 220kts
03-Nov-23 07:45 34.688138 -120.300831 342 24157ft 280kts
03-Nov-23 07:46 34.765549 -120.326166 342 24141ft 294kts
03-Nov-23 07:47 34.844736 -120.352144 342 24131ft 296kts
03-Nov-23 07:48 34.924103 -120.378249 342 24127ft 296kts
03-Nov-23 07:49 35.003693 -120.404485 342 24126ft 296kts
03-Nov-23 07:50 35.083268 -120.430766 342 24125ft 297kts
03-Nov-23 07:51 35.162922 -120.457144 342 24120ft 297kts
03-Nov-23 07:52 35.242658 -120.483592 342 24117ft 297kts
03-Nov-23 07:53 35.322392 -120.510085 341 24117ft 297kts
03-Nov-23 07:54 35.402129 -120.536658 341 24131ft 297kts
03-Nov-23 07:55 35.481699 -120.563213 341 24167ft 297kts
03-Nov-23 07:56 35.561439 -120.589886 341 24190ft 297kts
03-Nov-23 07:57 35.641142 -120.616599 341 24190ft 297kts
03-Nov-23 07:58 35.722478 -120.634346 350 24190ft 300kts
03-Nov-23 07:59 35.805137 -120.646169 350 24189ft 300kts
03-Nov-23 08:00 35.887845 -120.658078 349 24193ft 300kts
03-Nov-23 08:01 35.970706 -120.670038 349 24193ft 300kts
03-Nov-23 08:02 36.053457 -120.682007 349 24193ft 300kts
03-Nov-23 08:03 36.136209 -120.694006 350 24188ft 302kts
03-Nov-23 08:04 36.220287 -120.706177 350 24203ft 306kts
03-Nov-23 08:05 36.304753 -120.718506 349 24187ft 306kts
03-Nov-23 08:06 36.388846 -120.730781 350 24193ft 304kts
03-Nov-23 08:07 36.473482 -120.743194 349 23748ft 318kts
03-Nov-23 08:08 36.562850 -120.756255 349 22294ft 326kts
03-Nov-23 08:09 36.651878 -120.769272 350 20877ft 318kts
03-Nov-23 08:10 36.735027 -120.791659 327 20191ft 292kts
03-Nov-23 08:11 36.806075 -120.841906 328 19189ft 298kts
03-Nov-23 08:12 36.878562 -120.892707 327 17857ft 300kts
03-Nov-23 08:13 36.951012 -120.943624 328 16496ft 297kts
03-Nov-23 08:14 37.022507 -120.993899 328 15208ft 292kts
03-Nov-23 08:15 37.092427 -121.043195 328 13949ft 287kts
03-Nov-23 08:16 37.161557 -121.092038 328 12438ft 281kts
03-Nov-23 08:17 37.228366 -121.139355 328 10932ft 270kts
03-Nov-23 08:18 37.291894 -121.184407 329 9742ft 261kts
03-Nov-23 08:19 37.355449 -121.229571 330 8586ft 264kts
03-Nov-23 08:20 37.419488 -121.275169 330 7414ft 264kts
03-Nov-23 08:21 37.483174 -121.320597 330 6249ft 263kts
03-Nov-23 08:22 37.546597 -121.365941 331 5088ft 260kts
03-Nov-23 08:23 37.609315 -121.410865 331 3942ft 257kts
03-Nov-23 08:24 37.669187 -121.454546 330 2990ft 231kts
03-Nov-23 08:25 37.720293 -121.487692 316 2995ft 198kts
03-Nov-23 08:26 37.758689 -121.535535 316 2220ft 178kts
03-Nov-23 08:27 37.790195 -121.574768 315 1198ft 138kts
03-Nov-23 08:28 37.814794 -121.605443 315 480ft 97kts
03-Nov-23 08:29 37.830503 -121.625122 318 52ft 34kts
03-Nov-23 08:30 37.830242 -121.627527 229 55ft 7kts
03-Nov-23 08:31 37.830481 -121.627954 46 57ft 0kts
03-Nov-23 08:32 37.830481 -121.627954 46 57ft 0kts
03-Nov-23 08:33 37.830481 -121.627955 46 57ft 0kts

Navigation Log

Ident Type
Flight plan parsing failed, navigation log unavailable